MOL Paramount — 3ECH9 — position and weather

sailwx.info

Track history (hours):
 
Tides and Currents Weather Stations Pressure Air Temp Water Temp Dewpoint Dewpoint Depression Visibility Wind Speed Wind Dir Waves Ship Positions

MOL Paramount

Last reported at 2017-Nov-20 00:08 UTC. Time now 2017-Nov-25 00:13 UTC.
Position N 37°41' E 016°11'.

Length 293 m; draft 13 m.

Type: Cargo ship. MMSI: 371519000.

Date/timePositionNaut miles runAvg speedWind from/ knotsBaromVisibWave heightAir tempDewpointWater temp
2017-Nov-20 00:08N 37°41' E 016°11'820.6
2017-Nov-19 23:43N 37°45' E 016°02'520.5
2017-Nov-19 23:28N 37°47' E 015°55'1019.9
2017-Nov-19 22:58N 37°52' E 015°44'1117.5
2017-Nov-19 22:18N 38°01' E 015°35'516.1
2017-Nov-19 22:00N 38°05' E 015°35'714.9
2017-Nov-19 21:30N 38°13' E 015°36'815.3
2017-Nov-19 21:00N 38°19' E 015°42'815.6
2017-Nov-19 20:30N 38°25' E 015°49'4 7.2
2017-Nov-19 19:59N 38°27' E 015°52'2 3.9
2017-Nov-19 19:29N 38°28' E 015°55'0 0.1
2017-Nov-19 18:54N 38°28' E 015°55'0 0.0
2017-Nov-19 18:30N 38°28' E 015°55'0 0.0
2017-Nov-19 17:48N 38°28' E 015°55'0 0.0
2017-Nov-19 15:30N 38°28' E 015°55'0 0.0
2017-Nov-19 14:54N 38°28' E 015°55'0 0.0
2017-Nov-19 14:30N 38°28' E 015°55'0 0.0
2017-Nov-19 13:30N 38°28' E 015°55'0 0.0
2017-Nov-19 13:00N 38°28' E 015°55'0 0.0
2017-Nov-19 12:30N 38°28' E 015°55'0 0.0
2017-Nov-19 12:00N 38°28' E 015°55'0 0.0
2017-Nov-19 11:30N 38°28' E 015°55'0 0.0
2017-Nov-19 11:00N 38°28' E 015°55'0 0.0
2017-Nov-19 10:30N 38°28' E 015°55'0 0.0
2017-Nov-19 10:00N 38°28' E 015°55'0 0.0
2017-Nov-19 09:30N 38°28' E 015°55'0 0.0
2017-Nov-19 09:00N 38°28' E 015°55'0 0.0
2017-Nov-19 08:30N 38°28' E 015°55'0 0.0
2017-Nov-19 08:00N 38°28' E 015°55'0 0.0
2017-Nov-19 07:30N 38°28' E 015°55'0 0.0
2017-Nov-19 07:00N 38°28' E 015°55'0 0.0
2017-Nov-19 04:54N 38°28' E 015°55'0 0.0
2017-Nov-19 04:12N 38°28' E 015°55'0 0.0
2017-Nov-19 03:42N 38°28' E 015°55'0 0.0
2017-Nov-19 03:30N 38°28' E 015°55'0 0.0
2017-Nov-19 03:00N 38°28' E 015°55'0 0.0
2017-Nov-19 02:24N 38°28' E 015°55'0 0.0
2017-Nov-19 02:00N 38°28' E 015°55'0 0.0
2017-Nov-19 01:30N 38°28' E 015°55'0 0.0
2017-Nov-19 01:00N 38°28' E 015°55'0 0.0
2017-Nov-19 00:30N 38°28' E 015°55'0 0.0
2017-Nov-19 00:00N 38°28' E 015°55'0 0.0
2017-Nov-18 23:30N 38°28' E 015°55'0 0.0
2017-Nov-18 23:00N 38°28' E 015°55'0 0.0
2017-Nov-18 22:30N 38°28' E 015°55'0 0.0
2017-Nov-18 22:00N 38°28' E 015°55'0 0.0
2017-Nov-18 21:30N 38°28' E 015°55'0 0.0
2017-Nov-18 21:00N 38°28' E 015°55'0 0.0
2017-Nov-18 20:30N 38°28' E 015°55'0 0.0
2017-Nov-18 20:00N 38°28' E 015°55'0 0.9
2017-Nov-18 19:30N 38°27' E 015°54'1 2.8
2017-Nov-18 19:00N 38°27' E 015°53'1 2.9
2017-Nov-18 18:30N 38°27' E 015°51'611.2
2017-Nov-18 18:00N 38°32' E 015°48'817.0
2017-Nov-18 17:30N 38°39' E 015°42'815.1
2017-Nov-18 17:01N 38°45' E 015°37'816.9
2017-Nov-18 16:30N 38°53' E 015°31'917.6
2017-Nov-18 16:00N 39°00' E 015°25'1018.9
2017-Nov-18 15:28N 39°09' E 015°18'1719.5
2017-Nov-18 14:36N 39°23' E 015°06'219.5
2017-Nov-18 14:30N 39°24' E 015°05'2319.5
2017-Nov-18 13:19N 39°44' E 014°48'819.3
2017-Nov-18 12:53N 39°51' E 014°43'4919.3
2017-Nov-18 10:21N 40°32' E 014°08'616.9
2017-Nov-18 10:01N 40°38' E 014°11'816.2
2017-Nov-18 09:30N 40°45' E 014°16'5 9.4
2017-Nov-18 09:00N 40°49' E 014°18'1 1.9
2017-Nov-18 08:22N 40°50' E 014°17'0 0.0
2017-Nov-18 07:34N 40°50' E 014°17'0 0.0
2017-Nov-18 07:25N 40°50' E 014°17'14 1.2
2017-Nov-17 19:57N 40°40' E 014°05'613.3
2017-Nov-17 19:30N 40°39' E 013°58'713.8
2017-Nov-17 19:00N 40°40' E 013°49'21315.9
2017-Nov-17 05:36N 42°35' E 009°49'217.0
2017-Nov-17 05:30N 42°36' E 009°48'1317.1
2017-Nov-17 04:46N 42°48' E 009°41'517.0
2017-Nov-17 04:27N 42°53' E 009°38'1016.5
2017-Nov-17 03:49N 43°03' E 009°36'517.1
2017-Nov-17 03:30N 43°08' E 009°38'917.1
2017-Nov-17 03:00N 43°16' E 009°40'917.3
2017-Nov-17 02:30N 43°25' E 009°43'917.2
2017-Nov-17 02:00N 43°33' E 009°45'917.2
2017-Nov-17 01:30N 43°42' E 009°47'917.5
2017-Nov-17 01:00N 43°50' E 009°49'816.3
2017-Nov-17 00:30N 43°58' E 009°51'611.7
2017-Nov-17 00:00N 44°04' E 009°51'2 4.1
2017-Nov-16 23:28N 44°06' E 009°51'0 0.0
2017-Nov-16 22:58N 44°06' E 009°51'0 0.0
2017-Nov-16 22:28N 44°06' E 009°51'0 0.0
2017-Nov-16 21:58N 44°06' E 009°51'0 0.0
2017-Nov-16 21:28N 44°06' E 009°51'0 0.0
2017-Nov-16 20:58N 44°06' E 009°51'0 0.0
2017-Nov-16 20:28N 44°06' E 009°51'0 0.0
2017-Nov-16 19:58N 44°06' E 009°51'0 0.0
2017-Nov-16 19:28N 44°06' E 009°51'0 0.0
2017-Nov-16 18:55N 44°06' E 009°51'0 0.0
2017-Nov-16 18:28N 44°06' E 009°51'0 0.0
2017-Nov-16 17:58N 44°06' E 009°51'0 0.0
2017-Nov-16 17:28N 44°06' E 009°51'0 0.0
2017-Nov-16 16:58N 44°06' E 009°51'0 0.0
2017-Nov-16 16:28N 44°06' E 009°51'0 0.0
2017-Nov-16 15:58N 44°06' E 009°51'0 0.0
2017-Nov-16 15:28N 44°06' E 009°51'0 0.0
2017-Nov-16 14:58N 44°06' E 009°51'0 0.0
2017-Nov-16 14:25N 44°06' E 009°51'0 0.0
2017-Nov-16 13:55N 44°06' E 009°51'0 0.0
2017-Nov-16 13:28N 44°06' E 009°51'0 0.0
2017-Nov-16 12:58N 44°06' E 009°51'0 0.0
2017-Nov-16 12:28N 44°06' E 009°51'0 0.0
2017-Nov-16 11:58N 44°06' E 009°51'0 0.0
2017-Nov-16 11:28N 44°06' E 009°51'0 0.0
2017-Nov-16 10:58N 44°06' E 009°51'0 0.0
2017-Nov-16 10:28N 44°06' E 009°51'0 0.0
2017-Nov-16 09:58N 44°06' E 009°51'0 0.0
2017-Nov-16 09:28N 44°06' E 009°51'0 0.0
2017-Nov-16 08:58N 44°06' E 009°51'0 0.0
2017-Nov-16 08:28N 44°06' E 009°51'0 0.0
2017-Nov-16 07:49N 44°06' E 009°51'0 0.0
2017-Nov-16 07:28N 44°06' E 009°51'0 0.0
2017-Nov-16 06:55N 44°06' E 009°51'0 0.0
2017-Nov-16 06:28N 44°06' E 009°51'0 0.0
2017-Nov-16 05:59N 44°06' E 009°51'0 0.7
2017-Nov-16 05:30N 44°06' E 009°51'3 5.9
2017-Nov-16 04:57N 44°03' E 009°52'511.4
2017-Nov-16 04:30N 43°58' E 009°54'815.6
2017-Nov-16 04:00N 43°53' E 009°46'915.7
2017-Nov-16 03:26N 43°51' E 009°34'716.1
2017-Nov-16 03:00N 43°48' E 009°25'1017.8
2017-Nov-16 02:26N 43°44' E 009°13'817.9
2017-Nov-16 02:00N 43°41' E 009°03'917.8
2017-Nov-16 01:30N 43°37' E 008°51'1017.6
2017-Nov-16 00:57N 43°33' E 008°39'817.1
2017-Nov-16 00:30N 43°30' E 008°29'3616.8
2017-Nov-15 22:23N 43°17' E 007°44'916.9
2017-Nov-15 21:52N 43°13' E 007°33'717.2
2017-Nov-15 21:30N 43°11' E 007°25'917.3
2017-Nov-15 21:00N 43°07' E 007°14'917.5
2017-Nov-15 20:30N 43°03' E 007°04'8115.9
2017-Nov-15 15:25N 43°07' E 005°13'717.2
2017-Nov-15 15:00N 43°09' E 005°04'814.4
2017-Nov-15 14:27N 43°17' E 004°59'512.1
2017-Nov-15 14:00N 43°22' E 004°58'2 0.2
2017-Nov-15 03:32N 43°23' E 004°56'010.6
2017-Nov-15 03:30N 43°23' E 004°57'5 9.2
2017-Nov-15 02:59N 43°19' E 004°59'913.1
2017-Nov-15 02:20N 43°11' E 005°03'39217.3
2017-Nov-14 03:38N 37°59' W 000°09'518.3
2017-Nov-14 03:20N 37°54' W 000°13'1117.9
2017-Nov-14 02:42N 37°45' W 000°21'417.7
2017-Nov-14 02:30N 37°42' W 000°23'917.7
2017-Nov-14 02:00N 37°35' W 000°29'917.6
2017-Nov-14 01:30N 37°28' W 000°37'817.4
2017-Nov-14 01:00N 37°22' W 000°44'917.5
2017-Nov-14 00:30N 37°16' W 000°52'917.2
2017-Nov-13 23:59N 37°10' W 001°01'38117.2
2017-Nov-13 01:46N 36°29' W 008°54'1319.4
2017-Nov-13 01:05N 36°32' W 009°10'519.1
2017-Nov-13 00:50N 36°33' W 009°16'1219.6
2017-Nov-13 00:15N 36°41' W 009°26'520.0
2017-Nov-13 00:00N 36°45' W 009°30'5119.8
2017-Nov-12 21:26N 37°34' W 009°48'1020.5
2017-Nov-12 20:57N 37°44' W 009°50'1120.2
2017-Nov-12 20:24N 37°55' W 009°53'820.3
2017-Nov-12 20:00N 38°02' W 009°55'1020.1
2017-Nov-12 19:30N 38°12' W 009°57'1020.1
2017-Nov-12 19:00N 38°22' W 010°00'1020.2
2017-Nov-12 18:30N 38°32' W 010°04'1019.6
2017-Nov-12 18:00N 38°41' W 010°03'1019.9
2017-Nov-12 17:30N 38°51' W 010°04'1019.8
2017-Nov-12 17:00N 39°01' W 010°05'1020.0
2017-Nov-12 16:30N 39°11' W 010°06'1020.1
2017-Nov-12 16:00N 39°21' W 010°06'47719.8
2017-Nov-11 15:52N 47°03' W 007°17'1219.8
2017-Nov-11 15:14N 47°14' W 007°09'720.0
2017-Nov-11 14:54N 47°20' W 007°05'1120.3
2017-Nov-11 14:22N 47°29' W 006°56'820.5
2017-Nov-11 14:00N 47°35' W 006°50'1121.0
2017-Nov-11 13:29N 47°45' W 006°42'1121.0
2017-Nov-11 12:57N 47°55' W 006°37'920.5
2017-Nov-11 12:30N 48°03' W 006°30'1020.2
2017-Nov-11 12:00N 48°11' W 006°21'8317.9
2017-Nov-11 07:24N 49°11' W 004°55'716.0
2017-Nov-11 06:56N 49°16' W 004°46'816.4
2017-Nov-11 06:28N 49°19' W 004°36'916.9
2017-Nov-11 05:58N 49°23' W 004°24'3717.1
2017-Nov-11 03:49N 49°43' W 003°37'616.9
2017-Nov-11 03:27N 49°47' W 003°29'716.6
2017-Nov-11 03:00N 49°52' W 003°20'916.2
2017-Nov-11 02:26N 49°54' W 003°06'716.1
2017-Nov-11 02:00N 49°57' W 002°57'815.8
2017-Nov-11 01:30N 49°60' W 002°45'715.4
2017-Nov-11 01:00N 50°02' W 002°34'2115.1
2017-Nov-10 23:38N 50°08' W 002°03'215.1
2017-Nov-10 23:30N 50°08' W 001°60'815.8
2017-Nov-10 23:01N 50°04' W 001°48'816.5
2017-Nov-10 22:30N 50°01' W 001°37'917.2
2017-Nov-10 22:00N 49°58' W 001°24'917.9
2017-Nov-10 21:31N 49°54' W 001°12'918.3
2017-Nov-10 21:00N 49°49' W 000°60'918.6
2017-Nov-10 20:30N 49°44' W 000°47'918.8
2017-Nov-10 20:00N 49°40' W 000°35'1019.7
2017-Nov-10 19:30N 49°35' W 000°21'816.6
2017-Nov-10 19:00N 49°32' W 000°09'510.1
2017-Nov-10 18:30N 49°31' W 000°02'510.9
2017-Nov-10 18:00N 49°28' E 000°06'2 3.4
2017-Nov-10 17:29N 49°28' E 000°08'0 0.0
2017-Nov-10 16:59N 49°28' E 000°08'0 0.0
2017-Nov-10 16:29N 49°28' E 000°08'0 0.0
2017-Nov-10 15:59N 49°28' E 000°08'0 0.0
2017-Nov-10 15:29N 49°28' E 000°08'0 0.0
2017-Nov-10 14:59N 49°28' E 000°08'0 0.0
2017-Nov-10 14:29N 49°28' E 000°08'0 0.0
2017-Nov-10 13:59N 49°28' E 000°08'0 0.0
2017-Nov-10 13:29N 49°28' E 000°08'0 0.0
2017-Nov-10 12:59N 49°28' E 000°08'0 0.0
2017-Nov-10 12:29N 49°28' E 000°08'0 0.0
2017-Nov-10 11:59N 49°28' E 000°08'0 0.0
2017-Nov-10 11:29N 49°28' E 000°08'0 0.0
2017-Nov-10 10:59N 49°28' E 000°08'0 0.0
2017-Nov-10 10:29N 49°28' E 000°08'0 0.0
2017-Nov-10 09:59N 49°28' E 000°08'0 0.0
2017-Nov-10 09:29N 49°28' E 000°08'0 0.0
2017-Nov-10 08:59N 49°28' E 000°08'0 0.0
2017-Nov-10 08:29N 49°28' E 000°08'0 0.0
2017-Nov-10 07:59N 49°28' E 000°08'0 0.0
2017-Nov-10 07:29N 49°28' E 000°08'0 0.0
2017-Nov-10 06:59N 49°28' E 000°08'0 0.0
2017-Nov-10 06:29N 49°28' E 000°08'0 0.0
2017-Nov-10 05:59N 49°28' E 000°08'0 0.0
2017-Nov-10 05:29N 49°28' E 000°08'0 0.0
2017-Nov-10 04:59N 49°28' E 000°08'0 0.0
2017-Nov-10 04:29N 49°28' E 000°08'0 0.1
2017-Nov-10 04:00N 49°28' E 000°08'1 2.8
2017-Nov-10 03:30N 49°28' E 000°06'510.6
2017-Nov-10 03:00N 49°30' W 000°01'5 9.7
2017-Nov-10 02:30N 49°32' W 000°08'3 6.2
2017-Nov-10 02:00N 49°33' W 000°13'5 9.9
2017-Nov-10 01:31N 49°36' W 000°18'612.7
2017-Nov-10 01:00N 49°43' W 000°20'612.0
2017-Nov-10 00:30N 49°49' W 000°19'  
Track history (hours):
 
Tides and Currents Weather Stations Pressure Air Temp Water Temp Dewpoint Dewpoint Depression Visibility Wind Speed Wind Dir Waves Ship Positions

MOL Paramount

Last reported at 2017-Nov-20 00:08 UTC. Time now 2017-Nov-25 00:13 UTC.
Position N 37°41' E 016°11'.

Length 293 m; draft 13 m.

Type: Cargo ship. MMSI: 371519000.

Date/timePositionNaut miles runAvg speedWind from/ knotsBaromVisibWave heightAir tempDewpointWater temp
2017-Nov-20 00:08N 37°41' E 016°11'820.6
2017-Nov-19 23:43N 37°45' E 016°02'520.5
2017-Nov-19 23:28N 37°47' E 015°55'1019.9
2017-Nov-19 22:58N 37°52' E 015°44'1117.5
2017-Nov-19 22:18N 38°01' E 015°35'516.1
2017-Nov-19 22:00N 38°05' E 015°35'714.9
2017-Nov-19 21:30N 38°13' E 015°36'815.3
2017-Nov-19 21:00N 38°19' E 015°42'815.6
2017-Nov-19 20:30N 38°25' E 015°49'4 7.2
2017-Nov-19 19:59N 38°27' E 015°52'2 3.9
2017-Nov-19 19:29N 38°28' E 015°55'0 0.1
2017-Nov-19 18:54N 38°28' E 015°55'0 0.0
2017-Nov-19 18:30N 38°28' E 015°55'0 0.0
2017-Nov-19 17:48N 38°28' E 015°55'0 0.0
2017-Nov-19 15:30N 38°28' E 015°55'0 0.0
2017-Nov-19 14:54N 38°28' E 015°55'0 0.0
2017-Nov-19 14:30N 38°28' E 015°55'0 0.0
2017-Nov-19 13:30N 38°28' E 015°55'0 0.0
2017-Nov-19 13:00N 38°28' E 015°55'0 0.0
2017-Nov-19 12:30N 38°28' E 015°55'0 0.0
2017-Nov-19 12:00N 38°28' E 015°55'0 0.0
2017-Nov-19 11:30N 38°28' E 015°55'0 0.0
2017-Nov-19 11:00N 38°28' E 015°55'0 0.0
2017-Nov-19 10:30N 38°28' E 015°55'0 0.0
2017-Nov-19 10:00N 38°28' E 015°55'0 0.0
2017-Nov-19 09:30N 38°28' E 015°55'0 0.0
2017-Nov-19 09:00N 38°28' E 015°55'0 0.0
2017-Nov-19 08:30N 38°28' E 015°55'0 0.0
2017-Nov-19 08:00N 38°28' E 015°55'0 0.0
2017-Nov-19 07:30N 38°28' E 015°55'0 0.0
2017-Nov-19 07:00N 38°28' E 015°55'0 0.0
2017-Nov-19 04:54N 38°28' E 015°55'0 0.0
2017-Nov-19 04:12N 38°28' E 015°55'0 0.0
2017-Nov-19 03:42N 38°28' E 015°55'0 0.0
2017-Nov-19 03:30N 38°28' E 015°55'0 0.0
2017-Nov-19 03:00N 38°28' E 015°55'0 0.0
2017-Nov-19 02:24N 38°28' E 015°55'0 0.0
2017-Nov-19 02:00N 38°28' E 015°55'0 0.0
2017-Nov-19 01:30N 38°28' E 015°55'0 0.0
2017-Nov-19 01:00N 38°28' E 015°55'0 0.0
2017-Nov-19 00:30N 38°28' E 015°55'0 0.0
2017-Nov-19 00:00N 38°28' E 015°55'0 0.0
2017-Nov-18 23:30N 38°28' E 015°55'0 0.0
2017-Nov-18 23:00N 38°28' E 015°55'0 0.0
2017-Nov-18 22:30N 38°28' E 015°55'0 0.0
2017-Nov-18 22:00N 38°28' E 015°55'0 0.0
2017-Nov-18 21:30N 38°28' E 015°55'0 0.0
2017-Nov-18 21:00N 38°28' E 015°55'0 0.0
2017-Nov-18 20:30N 38°28' E 015°55'0 0.0
2017-Nov-18 20:00N 38°28' E 015°55'0 0.9
2017-Nov-18 19:30N 38°27' E 015°54'1 2.8
2017-Nov-18 19:00N 38°27' E 015°53'1 2.9
2017-Nov-18 18:30N 38°27' E 015°51'611.2
2017-Nov-18 18:00N 38°32' E 015°48'817.0
2017-Nov-18 17:30N 38°39' E 015°42'815.1
2017-Nov-18 17:01N 38°45' E 015°37'816.9
2017-Nov-18 16:30N 38°53' E 015°31'917.6
2017-Nov-18 16:00N 39°00' E 015°25'1018.9
2017-Nov-18 15:28N 39°09' E 015°18'1719.5
2017-Nov-18 14:36N 39°23' E 015°06'219.5
2017-Nov-18 14:30N 39°24' E 015°05'2319.5
2017-Nov-18 13:19N 39°44' E 014°48'819.3
2017-Nov-18 12:53N 39°51' E 014°43'4919.3
2017-Nov-18 10:21N 40°32' E 014°08'616.9
2017-Nov-18 10:01N 40°38' E 014°11'816.2
2017-Nov-18 09:30N 40°45' E 014°16'5 9.4
2017-Nov-18 09:00N 40°49' E 014°18'1 1.9
2017-Nov-18 08:22N 40°50' E 014°17'0 0.0
2017-Nov-18 07:34N 40°50' E 014°17'0 0.0
2017-Nov-18 07:25N 40°50' E 014°17'14 1.2
2017-Nov-17 19:57N 40°40' E 014°05'613.3
2017-Nov-17 19:30N 40°39' E 013°58'713.8
2017-Nov-17 19:00N 40°40' E 013°49'21315.9
2017-Nov-17 05:36N 42°35' E 009°49'217.0
2017-Nov-17 05:30N 42°36' E 009°48'1317.1
2017-Nov-17 04:46N 42°48' E 009°41'517.0
2017-Nov-17 04:27N 42°53' E 009°38'1016.5
2017-Nov-17 03:49N 43°03' E 009°36'517.1
2017-Nov-17 03:30N 43°08' E 009°38'917.1
2017-Nov-17 03:00N 43°16' E 009°40'917.3
2017-Nov-17 02:30N 43°25' E 009°43'917.2
2017-Nov-17 02:00N 43°33' E 009°45'917.2
2017-Nov-17 01:30N 43°42' E 009°47'917.5
2017-Nov-17 01:00N 43°50' E 009°49'816.3
2017-Nov-17 00:30N 43°58' E 009°51'611.7
2017-Nov-17 00:00N 44°04' E 009°51'2 4.1
2017-Nov-16 23:28N 44°06' E 009°51'0 0.0
2017-Nov-16 22:58N 44°06' E 009°51'0 0.0
2017-Nov-16 22:28N 44°06' E 009°51'0 0.0
2017-Nov-16 21:58N 44°06' E 009°51'0 0.0
2017-Nov-16 21:28N 44°06' E 009°51'0 0.0
2017-Nov-16 20:58N 44°06' E 009°51'0 0.0
2017-Nov-16 20:28N 44°06' E 009°51'0 0.0
2017-Nov-16 19:58N 44°06' E 009°51'0 0.0
2017-Nov-16 19:28N 44°06' E 009°51'0 0.0
2017-Nov-16 18:55N 44°06' E 009°51'0 0.0
2017-Nov-16 18:28N 44°06' E 009°51'0 0.0
2017-Nov-16 17:58N 44°06' E 009°51'0 0.0
2017-Nov-16 17:28N 44°06' E 009°51'0 0.0
2017-Nov-16 16:58N 44°06' E 009°51'0 0.0
2017-Nov-16 16:28N 44°06' E 009°51'0 0.0
2017-Nov-16 15:58N 44°06' E 009°51'0 0.0
2017-Nov-16 15:28N 44°06' E 009°51'0 0.0
2017-Nov-16 14:58N 44°06' E 009°51'0 0.0
2017-Nov-16 14:25N 44°06' E 009°51'0 0.0
2017-Nov-16 13:55N 44°06' E 009°51'0 0.0
2017-Nov-16 13:28N 44°06' E 009°51'0 0.0
2017-Nov-16 12:58N 44°06' E 009°51'0 0.0
2017-Nov-16 12:28N 44°06' E 009°51'0 0.0
2017-Nov-16 11:58N 44°06' E 009°51'0 0.0
2017-Nov-16 11:28N 44°06' E 009°51'0 0.0
2017-Nov-16 10:58N 44°06' E 009°51'0 0.0
2017-Nov-16 10:28N 44°06' E 009°51'0 0.0
2017-Nov-16 09:58N 44°06' E 009°51'0 0.0
2017-Nov-16 09:28N 44°06' E 009°51'0 0.0
2017-Nov-16 08:58N 44°06' E 009°51'0 0.0
2017-Nov-16 08:28N 44°06' E 009°51'0 0.0
2017-Nov-16 07:49N 44°06' E 009°51'0 0.0
2017-Nov-16 07:28N 44°06' E 009°51'0 0.0
2017-Nov-16 06:55N 44°06' E 009°51'0 0.0
2017-Nov-16 06:28N 44°06' E 009°51'0 0.0
2017-Nov-16 05:59N 44°06' E 009°51'0 0.7
2017-Nov-16 05:30N 44°06' E 009°51'3 5.9
2017-Nov-16 04:57N 44°03' E 009°52'511.4
2017-Nov-16 04:30N 43°58' E 009°54'815.6
2017-Nov-16 04:00N 43°53' E 009°46'915.7
2017-Nov-16 03:26N 43°51' E 009°34'716.1
2017-Nov-16 03:00N 43°48' E 009°25'1017.8
2017-Nov-16 02:26N 43°44' E 009°13'817.9
2017-Nov-16 02:00N 43°41' E 009°03'917.8
2017-Nov-16 01:30N 43°37' E 008°51'1017.6
2017-Nov-16 00:57N 43°33' E 008°39'817.1
2017-Nov-16 00:30N 43°30' E 008°29'3616.8
2017-Nov-15 22:23N 43°17' E 007°44'916.9
2017-Nov-15 21:52N 43°13' E 007°33'717.2
2017-Nov-15 21:30N 43°11' E 007°25'917.3
2017-Nov-15 21:00N 43°07' E 007°14'917.5
2017-Nov-15 20:30N 43°03' E 007°04'8115.9
2017-Nov-15 15:25N 43°07' E 005°13'717.2
2017-Nov-15 15:00N 43°09' E 005°04'814.4
2017-Nov-15 14:27N 43°17' E 004°59'512.1
2017-Nov-15 14:00N 43°22' E 004°58'2 0.2
2017-Nov-15 03:32N 43°23' E 004°56'010.6
2017-Nov-15 03:30N 43°23' E 004°57'5 9.2
2017-Nov-15 02:59N 43°19' E 004°59'913.1
2017-Nov-15 02:20N 43°11' E 005°03'39217.3
2017-Nov-14 03:38N 37°59' W 000°09'518.3
2017-Nov-14 03:20N 37°54' W 000°13'1117.9
2017-Nov-14 02:42N 37°45' W 000°21'417.7
2017-Nov-14 02:30N 37°42' W 000°23'917.7
2017-Nov-14 02:00N 37°35' W 000°29'917.6
2017-Nov-14 01:30N 37°28' W 000°37'817.4
2017-Nov-14 01:00N 37°22' W 000°44'917.5
2017-Nov-14 00:30N 37°16' W 000°52'917.2
2017-Nov-13 23:59N 37°10' W 001°01'38117.2
2017-Nov-13 01:46N 36°29' W 008°54'1319.4
2017-Nov-13 01:05N 36°32' W 009°10'519.1
2017-Nov-13 00:50N 36°33' W 009°16'1219.6
2017-Nov-13 00:15N 36°41' W 009°26'520.0
2017-Nov-13 00:00N 36°45' W 009°30'5119.8
2017-Nov-12 21:26N 37°34' W 009°48'1020.5
2017-Nov-12 20:57N 37°44' W 009°50'1120.2
2017-Nov-12 20:24N 37°55' W 009°53'820.3
2017-Nov-12 20:00N 38°02' W 009°55'1020.1
2017-Nov-12 19:30N 38°12' W 009°57'1020.1
2017-Nov-12 19:00N 38°22' W 010°00'1020.2
2017-Nov-12 18:30N 38°32' W 010°04'1019.6
2017-Nov-12 18:00N 38°41' W 010°03'1019.9
2017-Nov-12 17:30N 38°51' W 010°04'1019.8
2017-Nov-12 17:00N 39°01' W 010°05'1020.0
2017-Nov-12 16:30N 39°11' W 010°06'1020.1
2017-Nov-12 16:00N 39°21' W 010°06'47719.8
2017-Nov-11 15:52N 47°03' W 007°17'1219.8
2017-Nov-11 15:14N 47°14' W 007°09'720.0
2017-Nov-11 14:54N 47°20' W 007°05'1120.3
2017-Nov-11 14:22N 47°29' W 006°56'820.5
2017-Nov-11 14:00N 47°35' W 006°50'1121.0
2017-Nov-11 13:29N 47°45' W 006°42'1121.0
2017-Nov-11 12:57N 47°55' W 006°37'920.5
2017-Nov-11 12:30N 48°03' W 006°30'1020.2
2017-Nov-11 12:00N 48°11' W 006°21'8317.9
2017-Nov-11 07:24N 49°11' W 004°55'716.0
2017-Nov-11 06:56N 49°16' W 004°46'816.4
2017-Nov-11 06:28N 49°19' W 004°36'916.9
2017-Nov-11 05:58N 49°23' W 004°24'3717.1
2017-Nov-11 03:49N 49°43' W 003°37'616.9
2017-Nov-11 03:27N 49°47' W 003°29'716.6
2017-Nov-11 03:00N 49°52' W 003°20'916.2
2017-Nov-11 02:26N 49°54' W 003°06'716.1
2017-Nov-11 02:00N 49°57' W 002°57'815.8
2017-Nov-11 01:30N 49°60' W 002°45'715.4
2017-Nov-11 01:00N 50°02' W 002°34'2115.1
2017-Nov-10 23:38N 50°08' W 002°03'215.1
2017-Nov-10 23:30N 50°08' W 001°60'815.8
2017-Nov-10 23:01N 50°04' W 001°48'816.5
2017-Nov-10 22:30N 50°01' W 001°37'917.2
2017-Nov-10 22:00N 49°58' W 001°24'917.9
2017-Nov-10 21:31N 49°54' W 001°12'918.3
2017-Nov-10 21:00N 49°49' W 000°60'918.6
2017-Nov-10 20:30N 49°44' W 000°47'918.8
2017-Nov-10 20:00N 49°40' W 000°35'1019.7
2017-Nov-10 19:30N 49°35' W 000°21'816.6
2017-Nov-10 19:00N 49°32' W 000°09'510.1
2017-Nov-10 18:30N 49°31' W 000°02'510.9
2017-Nov-10 18:00N 49°28' E 000°06'2 3.4
2017-Nov-10 17:29N 49°28' E 000°08'0 0.0
2017-Nov-10 16:59N 49°28' E 000°08'0 0.0
2017-Nov-10 16:29N 49°28' E 000°08'0 0.0
2017-Nov-10 15:59N 49°28' E 000°08'0 0.0
2017-Nov-10 15:29N 49°28' E 000°08'0 0.0
2017-Nov-10 14:59N 49°28' E 000°08'0 0.0
2017-Nov-10 14:29N 49°28' E 000°08'0 0.0
2017-Nov-10 13:59N 49°28' E 000°08'0 0.0
2017-Nov-10 13:29N 49°28' E 000°08'0 0.0
2017-Nov-10 12:59N 49°28' E 000°08'0 0.0
2017-Nov-10 12:29N 49°28' E 000°08'0 0.0
2017-Nov-10 11:59N 49°28' E 000°08'0 0.0
2017-Nov-10 11:29N 49°28' E 000°08'0 0.0
2017-Nov-10 10:59N 49°28' E 000°08'0 0.0
2017-Nov-10 10:29N 49°28' E 000°08'0 0.0
2017-Nov-10 09:59N 49°28' E 000°08'0 0.0
2017-Nov-10 09:29N 49°28' E 000°08'0 0.0
2017-Nov-10 08:59N 49°28' E 000°08'0 0.0
2017-Nov-10 08:29N 49°28' E 000°08'0 0.0
2017-Nov-10 07:59N 49°28' E 000°08'0 0.0
2017-Nov-10 07:29N 49°28' E 000°08'0 0.0
2017-Nov-10 06:59N 49°28' E 000°08'0 0.0
2017-Nov-10 06:29N 49°28' E 000°08'0 0.0
2017-Nov-10 05:59N 49°28' E 000°08'0 0.0
2017-Nov-10 05:29N 49°28' E 000°08'0 0.0
2017-Nov-10 04:59N 49°28' E 000°08'0 0.0
2017-Nov-10 04:29N 49°28' E 000°08'0 0.1
2017-Nov-10 04:00N 49°28' E 000°08'1 2.8
2017-Nov-10 03:30N 49°28' E 000°06'510.6
2017-Nov-10 03:00N 49°30' W 000°01'5 9.7
2017-Nov-10 02:30N 49°32' W 000°08'3 6.2
2017-Nov-10 02:00N 49°33' W 000°13'5 9.9
2017-Nov-10 01:31N 49°36' W 000°18'612.7
2017-Nov-10 01:00N 49°43' W 000°20'612.0
2017-Nov-10 00:30N 49°49' W 000°19'  

Dump ship's entire track history